createdAt,value
2023-03-26T00:02:21.311Z,1.63
2023-03-26T00:04:49.888Z,0.80
2023-03-26T00:07:17.482Z,0.65
2023-03-26T00:09:45.189Z,0.90
2023-03-26T00:12:14.153Z,0.40
2023-03-26T00:14:41.877Z,0.93
2023-03-26T00:17:09.481Z,1.27
2023-03-26T00:19:38.036Z,0.43
2023-03-26T00:22:05.751Z,1.23
2023-03-26T00:24:33.297Z,0.85
2023-03-26T00:27:00.999Z,0.85
2023-03-26T00:29:33.233Z,1.95
2023-03-26T00:32:00.825Z,0.45
2023-03-26T00:34:28.464Z,0.85
2023-03-26T00:36:56.082Z,0.73
2023-03-26T00:39:24.449Z,0.68
2023-03-26T00:41:54.500Z,0.63
2023-03-26T00:44:22.656Z,0.80
2023-03-26T00:46:51.618Z,0.95
2023-03-26T00:49:19.235Z,0.65
2023-03-26T00:51:46.895Z,0.60
2023-03-26T00:54:14.487Z,0.85
2023-03-26T00:56:42.206Z,0.65
2023-03-26T00:59:10.282Z,0.50
2023-03-26T01:01:38.097Z,0.93
2023-03-26T01:04:30.970Z,0.98
2023-03-26T01:07:01.610Z,0.73
2023-03-26T01:09:32.955Z,1.33
2023-03-26T01:12:01.295Z,0.93
2023-03-26T01:14:29.984Z,1.00
2023-03-26T01:16:58.277Z,1.25
2023-03-26T01:19:30.333Z,0.90
2023-03-26T01:21:58.840Z,1.08
2023-03-26T01:24:27.936Z,0.47
2023-03-26T01:27:02.172Z,0.93
2023-03-26T01:29:32.062Z,1.15
2023-03-26T01:32:04.379Z,0.93
2023-03-26T01:34:37.346Z,0.77
2023-03-26T01:37:08.007Z,0.90
2023-03-26T01:39:40.587Z,1.17
2023-03-26T01:42:10.920Z,0.82
2023-03-26T01:44:40.872Z,1.15
2023-03-26T01:47:09.709Z,1.08
2023-03-26T01:49:37.506Z,0.60
2023-03-26T01:52:07.321Z,0.60
2023-03-26T01:54:35.086Z,0.93
2023-03-26T01:57:10.737Z,0.57
2023-03-26T01:59:56.354Z,0.60
2023-03-26T02:02:27.869Z,1.00
2023-03-26T02:04:58.105Z,0.50
2023-03-26T02:07:29.050Z,0.95
2023-03-26T02:09:59.495Z,0.60
2023-03-26T02:12:28.887Z,0.88
2023-03-26T02:14:56.488Z,0.50
2023-03-26T02:17:24.623Z,0.60
2023-03-26T02:19:52.421Z,0.70
2023-03-26T02:22:20.985Z,0.85
2023-03-26T02:24:48.550Z,1.08
2023-03-26T02:27:18.311Z,0.57
2023-03-26T02:29:50.218Z,0.50
2023-03-26T02:32:21.444Z,0.70
2023-03-26T02:34:51.272Z,0.30
2023-03-26T02:37:19.798Z,0.55
2023-03-26T02:39:53.990Z,0.88
2023-03-26T02:42:29.218Z,0.70
2023-03-26T02:44:59.650Z,0.55
2023-03-26T02:47:46.115Z,0.40
2023-03-26T02:50:40.220Z,0.40
2023-03-26T02:53:37.513Z,0.52
2023-03-26T02:56:22.170Z,0.45
2023-03-26T02:59:03.527Z,0.70
2023-03-26T03:01:35.026Z,0.40
2023-03-26T03:04:05.037Z,0.68
2023-03-26T03:06:36.034Z,0.75
2023-03-26T03:09:05.167Z,0.57
2023-03-26T03:11:39.463Z,0.70
2023-03-26T03:14:08.378Z,1.00
2023-03-26T03:16:37.975Z,0.50
2023-03-26T03:19:14.487Z,0.70
2023-03-26T03:21:42.576Z,0.93
2023-03-26T03:24:11.583Z,0.73
2023-03-26T03:26:45.665Z,0.80
2023-03-26T03:29:33.529Z,0.60
2023-03-26T03:32:22.785Z,1.08
2023-03-26T03:34:52.722Z,0.95
2023-03-26T03:37:20.963Z,0.77
2023-03-26T03:39:52.766Z,0.52
2023-03-26T03:42:22.899Z,0.93
2023-03-26T03:44:53.496Z,0.50
2023-03-26T03:47:42.753Z,0.60
2023-03-26T03:50:10.674Z,0.65
2023-03-26T03:52:44.499Z,0.50
2023-03-26T03:55:13.998Z,0.70
2023-03-26T03:57:52.751Z,0.47
2023-03-26T04:00:22.681Z,0.70
2023-03-26T04:03:06.694Z,0.95
2023-03-26T04:05:35.044Z,0.50
2023-03-26T04:08:02.750Z,0.60
2023-03-26T04:10:44.838Z,0.98
2023-03-26T04:13:12.459Z,0.50
2023-03-26T04:15:56.371Z,0.52
2023-03-26T04:18:26.365Z,0.98
2023-03-26T04:20:55.745Z,0.50
2023-03-26T04:23:29.034Z,0.80
2023-03-26T04:26:06.404Z,0.50
2023-03-26T04:29:06.745Z,0.63
2023-03-26T04:31:36.271Z,0.77
2023-03-26T04:34:07.231Z,0.85
2023-03-26T04:36:42.724Z,0.95
2023-03-26T04:39:13.086Z,0.77
2023-03-26T04:41:59.241Z,1.20
2023-03-26T04:44:35.055Z,0.70
2023-03-26T04:47:07.690Z,1.08
2023-03-26T04:49:45.444Z,0.90
2023-03-26T04:52:14.648Z,0.88
2023-03-26T04:54:51.313Z,0.35
2023-03-26T04:57:23.982Z,0.55
2023-03-26T04:59:55.849Z,0.70
2023-03-26T05:02:24.730Z,0.30
2023-03-26T05:04:57.131Z,0.80
2023-03-26T05:07:28.208Z,0.82
2023-03-26T05:09:58.246Z,0.68
2023-03-26T05:12:35.623Z,0.77
2023-03-26T05:15:08.933Z,0.40
2023-03-26T05:17:51.782Z,1.13
2023-03-26T05:20:31.209Z,0.88
2023-03-26T05:22:59.087Z,0.88
2023-03-26T05:25:30.384Z,0.63
2023-03-26T05:27:59.747Z,0.60
2023-03-26T05:30:34.624Z,0.38
2023-03-26T05:33:04.867Z,0.95
2023-03-26T05:35:43.629Z,0.55
2023-03-26T05:38:12.058Z,0.73
2023-03-26T05:40:40.261Z,1.05
2023-03-26T05:43:09.195Z,0.70
2023-03-26T05:45:40.742Z,0.98
2023-03-26T05:48:18.687Z,0.75
2023-03-26T05:50:48.539Z,0.60
2023-03-26T05:53:16.275Z,0.90
2023-03-26T05:56:06.956Z,0.57
2023-03-26T05:58:53.012Z,0.68
2023-03-26T06:01:29.473Z,0.30
2023-03-26T06:04:17.130Z,0.43
2023-03-26T06:07:04.703Z,0.60
2023-03-26T06:09:32.744Z,0.55
2023-03-26T06:12:00.355Z,0.60
2023-03-26T06:14:30.871Z,0.57
2023-03-26T06:17:27.856Z,0.60
2023-03-26T06:20:24.689Z,0.85
2023-03-26T06:22:56.474Z,0.60
2023-03-26T06:25:45.611Z,0.60
2023-03-26T06:28:22.237Z,0.90
2023-03-26T06:30:53.309Z,0.80
2023-03-26T06:33:39.893Z,0.68
2023-03-26T06:36:10.119Z,0.60
2023-03-26T06:38:39.846Z,0.95
2023-03-26T06:41:08.901Z,0.80
2023-03-26T06:43:56.838Z,0.60
2023-03-26T06:46:43.180Z,0.68
2023-03-26T06:49:29.487Z,0.77
2023-03-26T06:52:15.950Z,0.57
2023-03-26T06:55:11.329Z,0.70
2023-03-26T06:57:50.139Z,0.88
2023-03-26T07:00:36.271Z,1.00
2023-03-26T07:03:42.123Z,0.73
2023-03-26T07:06:28.476Z,0.77
2023-03-26T07:09:14.659Z,1.08
2023-03-26T07:12:02.233Z,0.77
2023-03-26T07:14:44.716Z,1.02
2023-03-26T07:17:32.566Z,0.73
2023-03-26T07:20:14.841Z,0.40
2023-03-26T07:22:43.479Z,0.65
2023-03-26T07:25:16.528Z,0.50
2023-03-26T07:28:12.377Z,1.25
2023-03-26T07:30:55.010Z,0.80
2023-03-26T07:33:40.402Z,0.77
2023-03-26T07:36:26.072Z,1.08
2023-03-26T07:39:20.426Z,0.75
2023-03-26T07:42:02.849Z,0.77
2023-03-26T07:44:52.591Z,1.48
2023-03-26T07:47:42.641Z,1.33
2023-03-26T07:50:18.443Z,1.15
2023-03-26T07:53:01.780Z,0.88
2023-03-26T07:56:00.955Z,0.68
2023-03-26T07:58:51.152Z,1.40
2023-03-26T08:01:34.494Z,1.00
2023-03-26T08:04:23.740Z,1.35
2023-03-26T08:07:19.381Z,1.25
2023-03-26T08:10:09.103Z,1.13
2023-03-26T08:12:53.742Z,0.80
2023-03-26T08:15:25.559Z,1.23
2023-03-26T08:17:55.990Z,0.88
2023-03-26T08:20:31.019Z,0.70
2023-03-26T08:23:03.526Z,0.70
2023-03-26T08:25:34.838Z,0.77
2023-03-26T08:28:18.601Z,1.20
2023-03-26T08:30:46.924Z,1.05
2023-03-26T08:33:17.983Z,1.00
2023-03-26T08:35:46.143Z,1.13
2023-03-26T08:38:14.678Z,1.23
2023-03-26T08:40:59.238Z,1.05
2023-03-26T08:43:46.861Z,1.20
2023-03-26T08:46:42.146Z,1.10
2023-03-26T08:49:26.276Z,0.80
2023-03-26T08:52:07.238Z,1.02
2023-03-26T08:54:58.846Z,1.08
2023-03-26T08:57:44.126Z,1.00
2023-03-26T09:00:35.930Z,1.83
2023-03-26T09:03:16.296Z,1.23
2023-03-26T09:05:56.607Z,0.82
2023-03-26T09:08:54.402Z,1.10
2023-03-26T09:11:40.000Z,1.05
2023-03-26T09:14:22.415Z,0.93
2023-03-26T09:16:58.638Z,1.40
2023-03-26T09:19:44.825Z,1.08
2023-03-26T09:22:24.897Z,0.90
2023-03-26T09:25:06.527Z,0.77
2023-03-26T09:27:37.913Z,1.25
2023-03-26T09:30:13.498Z,1.40
2023-03-26T09:32:53.635Z,0.65
2023-03-26T09:35:36.138Z,0.88
2023-03-26T09:38:12.639Z,1.10
2023-03-26T09:40:44.735Z,1.00
2023-03-26T09:43:26.023Z,1.10
2023-03-26T09:46:01.168Z,1.15
2023-03-26T09:48:42.113Z,1.20
2023-03-26T09:51:22.195Z,0.98
2023-03-26T09:53:59.639Z,1.00
2023-03-26T09:56:32.806Z,1.20
2023-03-26T09:59:08.822Z,0.85
2023-03-26T10:01:40.576Z,1.40
2023-03-26T10:04:23.793Z,0.98
2023-03-26T10:06:55.408Z,0.90
2023-03-26T10:09:39.332Z,1.15
2023-03-26T10:12:20.788Z,1.25
2023-03-26T10:14:53.751Z,1.02
2023-03-26T10:17:33.648Z,1.10
2023-03-26T10:20:13.224Z,1.05
2023-03-26T10:22:47.268Z,1.30
2023-03-26T10:25:22.815Z,1.40
2023-03-26T10:27:55.485Z,1.17
2023-03-26T10:30:28.385Z,1.10
2023-03-26T10:33:07.449Z,1.33
2023-03-26T10:35:43.022Z,1.40
2023-03-26T10:38:16.412Z,1.50
2023-03-26T10:40:49.113Z,1.45
2023-03-26T10:43:34.582Z,1.50
2023-03-26T10:46:25.953Z,1.50
2023-03-26T10:49:05.864Z,1.05
2023-03-26T10:51:53.336Z,1.20
2023-03-26T10:54:36.640Z,1.20
2023-03-26T10:57:07.262Z,1.33
2023-03-26T10:59:34.899Z,1.48
2023-03-26T11:02:06.307Z,1.20
2023-03-26T11:04:38.025Z,1.55
2023-03-26T11:07:11.752Z,1.50
2023-03-26T11:09:43.571Z,1.33
2023-03-26T11:12:27.486Z,1.40
2023-03-26T11:15:02.774Z,1.38
2023-03-26T11:17:40.394Z,1.00
2023-03-26T11:20:12.045Z,1.30
2023-03-26T11:22:43.951Z,1.27
2023-03-26T11:25:29.369Z,1.20
2023-03-26T11:28:03.789Z,1.10
2023-03-26T11:30:36.612Z,1.30
2023-03-26T11:33:05.712Z,1.30
2023-03-26T11:35:40.420Z,1.13
2023-03-26T11:38:14.367Z,1.33
2023-03-26T11:40:43.576Z,1.55
2023-03-26T11:43:23.217Z,1.20
2023-03-26T11:45:53.681Z,1.17
2023-03-26T11:48:25.024Z,1.10
2023-03-26T11:50:54.844Z,1.48
2023-03-26T11:53:25.062Z,1.20
2023-03-26T11:55:59.123Z,1.48
2023-03-26T11:58:31.150Z,1.13
2023-03-26T12:00:59.085Z,1.15
2023-03-26T12:03:30.276Z,1.05
2023-03-26T12:05:59.544Z,1.15
2023-03-26T12:08:31.178Z,1.15
2023-03-26T12:11:01.915Z,0.88
2023-03-26T12:13:36.386Z,0.80
2023-03-26T12:16:07.572Z,1.08
2023-03-26T12:18:35.295Z,1.00
2023-03-26T12:21:04.517Z,0.90
2023-03-26T12:23:36.794Z,0.93
2023-03-26T12:26:15.067Z,0.82
2023-03-26T12:28:47.073Z,0.98
2023-03-26T12:31:18.197Z,0.85
2023-03-26T12:33:46.880Z,0.90
2023-03-26T12:36:19.239Z,0.95
2023-03-26T12:39:43.646Z,0.77
2023-03-26T12:42:52.811Z,0.75
2023-03-26T12:44:56.099Z,0.60
2023-03-26T12:47:58.181Z,0.50
2023-03-26T12:50:05.828Z,0.68
2023-03-26T12:52:46.054Z,0.65
2023-03-26T12:55:22.807Z,0.30
2023-03-26T12:57:56.485Z,0.60
2023-03-26T13:00:33.554Z,0.63
2023-03-26T13:03:07.868Z,0.85
2023-03-26T13:05:58.282Z,0.50
2023-03-26T13:08:38.140Z,0.30
2023-03-26T13:11:09.713Z,0.50
2023-03-26T13:13:56.442Z,0.52
2023-03-26T13:16:29.787Z,0.57
2023-03-26T13:18:59.183Z,0.30
2023-03-26T13:21:32.160Z,0.45
2023-03-26T13:24:05.291Z,0.40
2023-03-26T13:26:38.700Z,0.85
2023-03-26T13:29:09.678Z,0.60
2023-03-26T13:31:43.410Z,0.60
2023-03-26T13:34:17.990Z,0.60
2023-03-26T13:36:49.658Z,0.65
2023-03-26T13:39:23.227Z,0.50
2023-03-26T13:42:01.325Z,0.70
2023-03-26T13:44:33.255Z,0.70
2023-03-26T13:47:04.285Z,0.60
2023-03-26T13:49:37.227Z,0.80
2023-03-26T13:52:08.111Z,0.90
2023-03-26T13:54:37.713Z,0.75
2023-03-26T13:57:07.898Z,0.70
2023-03-26T13:59:39.435Z,0.90
2023-03-26T14:02:11.579Z,0.68
2023-03-26T14:04:41.193Z,0.60
2023-03-26T14:07:10.451Z,0.65
2023-03-26T14:09:41.902Z,0.60
2023-03-26T14:12:21.750Z,0.60
2023-03-26T14:14:52.673Z,0.70
2023-03-26T14:17:23.465Z,0.63
2023-03-26T14:20:10.273Z,0.90
2023-03-26T14:22:42.821Z,0.70
2023-03-26T14:25:18.659Z,0.75
2023-03-26T14:27:52.124Z,0.77
2023-03-26T14:30:34.542Z,0.60
2023-03-26T14:33:10.319Z,0.50
2023-03-26T14:35:42.191Z,0.65
2023-03-26T14:38:23.400Z,0.70
2023-03-26T14:40:58.087Z,0.60
2023-03-26T14:43:43.811Z,0.50
2023-03-26T14:46:22.807Z,0.60
2023-03-26T14:49:06.453Z,0.90
2023-03-26T14:51:41.391Z,0.77
2023-03-26T14:54:12.264Z,0.70
2023-03-26T14:56:58.742Z,0.70
2023-03-26T14:59:43.958Z,0.80
2023-03-26T15:02:38.627Z,0.90
2023-03-26T15:05:25.112Z,0.88
2023-03-26T15:08:00.876Z,1.05
2023-03-26T15:10:49.484Z,0.90
2023-03-26T15:13:29.282Z,0.80
2023-03-26T15:16:17.429Z,0.75
2023-03-26T15:18:57.232Z,0.80
2023-03-26T15:21:46.847Z,1.00
2023-03-26T15:24:29.118Z,1.15
2023-03-26T15:27:15.221Z,0.85
2023-03-26T15:29:54.366Z,0.70
2023-03-26T15:32:40.478Z,0.60
2023-03-26T15:35:20.875Z,0.90
2023-03-26T15:38:08.986Z,0.90
2023-03-26T15:40:41.580Z,0.80
2023-03-26T15:43:12.505Z,0.77
2023-03-26T15:45:41.559Z,1.00
2023-03-26T15:48:22.522Z,1.10
2023-03-26T15:50:55.762Z,0.93
2023-03-26T15:53:28.826Z,1.10
2023-03-26T15:56:08.462Z,0.90
2023-03-26T15:58:42.194Z,1.00
2023-03-26T16:01:19.110Z,1.13
2023-03-26T16:03:52.375Z,1.10
2023-03-26T16:06:31.056Z,0.90
2023-03-26T16:09:07.850Z,1.10
2023-03-26T16:11:48.942Z,1.35
2023-03-26T16:14:23.334Z,1.13
2023-03-26T16:16:54.042Z,1.30
2023-03-26T16:19:36.142Z,1.20
2023-03-26T16:22:05.816Z,1.33
2023-03-26T16:24:34.718Z,1.38
2023-03-26T16:27:08.306Z,1.50
2023-03-26T16:29:58.312Z,1.83
2023-03-26T16:32:28.708Z,1.30
2023-03-26T16:34:58.115Z,1.40
2023-03-26T16:37:36.796Z,1.10
2023-03-26T16:40:20.438Z,1.25
2023-03-26T16:42:50.026Z,1.77
2023-03-26T16:45:20.869Z,1.50
2023-03-26T16:47:52.673Z,1.38
2023-03-26T16:50:25.975Z,1.33
2023-03-26T16:52:58.760Z,1.48
2023-03-26T16:55:29.834Z,1.58
2023-03-26T16:58:04.624Z,1.10
2023-03-26T17:00:43.749Z,1.60
2023-03-26T17:03:33.838Z,1.50
2023-03-26T17:06:06.075Z,1.42
2023-03-26T17:08:37.923Z,1.25
2023-03-26T17:11:10.060Z,1.60
2023-03-26T17:13:44.092Z,1.25
2023-03-26T17:16:14.546Z,1.20
2023-03-26T17:18:48.981Z,1.23
2023-03-26T17:21:18.834Z,1.17
2023-03-26T17:23:57.161Z,1.35
2023-03-26T17:26:31.183Z,1.33
2023-03-26T17:29:06.270Z,1.40
2023-03-26T17:31:41.172Z,1.08
2023-03-26T17:34:29.499Z,1.55
2023-03-26T17:36:58.980Z,1.80
2023-03-26T17:39:46.725Z,1.48
2023-03-26T17:42:18.956Z,1.35
2023-03-26T17:44:50.459Z,1.30
2023-03-26T17:47:24.660Z,1.10
2023-03-26T17:49:54.919Z,1.30
2023-03-26T17:52:26.392Z,1.30
2023-03-26T17:54:56.498Z,1.42
2023-03-26T17:57:26.024Z,1.00
2023-03-26T17:59:56.828Z,0.85
2023-03-26T18:02:31.491Z,1.33
2023-03-26T18:04:59.834Z,1.30
2023-03-26T18:07:41.780Z,1.30
2023-03-26T18:10:28.811Z,1.23
2023-03-26T18:13:05.868Z,1.40
2023-03-26T18:15:45.037Z,1.05
2023-03-26T18:18:17.960Z,1.58
2023-03-26T18:20:47.047Z,1.00
2023-03-26T18:23:21.891Z,1.10
2023-03-26T18:25:53.210Z,1.27
2023-03-26T18:28:29.142Z,1.20
2023-03-26T18:30:56.827Z,1.30
2023-03-26T18:33:25.836Z,0.85
2023-03-26T18:35:55.658Z,1.42
2023-03-26T18:38:35.696Z,1.38
2023-03-26T18:41:08.008Z,1.20
2023-03-26T18:43:44.050Z,1.33
2023-03-26T18:46:13.062Z,1.00
2023-03-26T18:48:40.824Z,1.05
2023-03-26T18:51:08.859Z,1.48
2023-03-26T18:53:39.165Z,1.65
2023-03-26T18:56:19.094Z,1.20
2023-03-26T18:58:51.302Z,1.38
2023-03-26T19:01:25.330Z,0.70
2023-03-26T19:03:54.606Z,0.70
2023-03-26T19:06:23.308Z,0.68
2023-03-26T19:08:53.161Z,0.63
2023-03-26T19:11:20.755Z,0.75
2023-03-26T19:13:51.550Z,0.60
2023-03-26T19:16:22.145Z,0.57
2023-03-26T19:18:49.968Z,0.65
2023-03-26T19:21:18.023Z,0.60
2023-03-26T19:23:46.611Z,0.30
2023-03-26T19:26:16.624Z,0.50
2023-03-26T19:28:49.254Z,0.40
2023-03-26T19:31:20.904Z,0.50
2023-03-26T19:33:55.079Z,0.57
2023-03-26T19:36:24.981Z,0.50
2023-03-26T19:38:53.388Z,0.68
2023-03-26T19:41:24.270Z,0.40
2023-03-26T19:43:52.428Z,0.68
2023-03-26T19:46:23.826Z,0.63
2023-03-26T19:48:52.575Z,0.63
2023-03-26T19:51:21.297Z,0.20
2023-03-26T19:53:50.942Z,0.45
2023-03-26T19:56:20.828Z,0.60
2023-03-26T19:58:50.074Z,0.25
2023-03-26T20:01:19.266Z,0.60
2023-03-26T20:03:48.358Z,0.40
2023-03-26T20:06:17.245Z,0.30
2023-03-26T20:08:45.079Z,0.30
2023-03-26T20:11:15.495Z,0.50
2023-03-26T20:13:43.073Z,0.40
2023-03-26T20:16:14.352Z,0.35
2023-03-26T20:18:42.292Z,0.52
2023-03-26T20:21:10.645Z,0.60
2023-03-26T20:23:39.144Z,0.65
2023-03-26T20:26:06.975Z,0.20
2023-03-26T20:28:42.353Z,0.40
2023-03-26T20:31:18.921Z,0.28
2023-03-26T20:33:47.921Z,0.30
2023-03-26T20:36:33.857Z,0.30
2023-03-26T20:39:05.492Z,0.50
2023-03-26T20:41:33.773Z,0.40
2023-03-26T20:44:03.629Z,0.50
2023-03-26T20:46:33.088Z,0.50
2023-03-26T20:49:00.710Z,0.30
2023-03-26T20:51:29.184Z,0.73
2023-03-26T20:53:57.269Z,0.25
2023-03-26T20:56:24.994Z,0.45
2023-03-26T20:59:09.970Z,0.52
2023-03-26T21:01:39.773Z,0.82
2023-03-26T21:04:07.357Z,0.50
2023-03-26T21:06:34.981Z,0.50
2023-03-26T21:09:02.830Z,0.30
2023-03-26T21:11:35.766Z,0.57
2023-03-26T21:14:08.162Z,0.57
2023-03-26T21:16:37.567Z,0.63
2023-03-26T21:19:06.932Z,0.60
2023-03-26T21:21:41.825Z,0.45
2023-03-26T21:24:14.303Z,0.52
2023-03-26T21:26:45.314Z,0.57
2023-03-26T21:29:13.141Z,0.40
2023-03-26T21:31:41.039Z,0.40
2023-03-26T21:34:13.209Z,0.52
2023-03-26T21:36:41.926Z,0.35
2023-03-26T21:39:10.931Z,0.20
2023-03-26T21:41:43.612Z,0.50
2023-03-26T21:44:11.701Z,0.80
2023-03-26T21:46:41.699Z,0.13
2023-03-26T21:49:11.197Z,0.50
2023-03-26T21:51:39.237Z,0.40
2023-03-26T21:54:07.187Z,0.57
2023-03-26T21:56:41.667Z,0.25
2023-03-26T21:59:13.461Z,0.30
2023-03-26T22:01:45.119Z,0.32
2023-03-26T22:04:16.880Z,0.38
2023-03-26T22:06:47.038Z,0.63
2023-03-26T22:09:16.763Z,0.52
2023-03-26T22:11:48.190Z,0.77
2023-03-26T22:14:15.808Z,0.55
2023-03-26T22:16:43.505Z,0.20
2023-03-26T22:19:12.525Z,0.52
2023-03-26T22:21:41.414Z,0.20
2023-03-26T22:24:09.220Z,0.28
2023-03-26T22:26:37.312Z,0.40
2023-03-26T22:29:04.998Z,0.40
2023-03-26T22:31:32.820Z,0.40
2023-03-26T22:34:00.539Z,0.30
2023-03-26T22:36:28.129Z,0.50
2023-03-26T22:38:57.528Z,0.47
2023-03-26T22:41:25.749Z,0.60
2023-03-26T22:43:54.864Z,0.65
2023-03-26T22:46:23.533Z,0.30
2023-03-26T22:48:51.434Z,0.35
2023-03-26T22:51:19.516Z,0.63
2023-03-26T22:53:47.137Z,0.43
2023-03-26T22:56:17.095Z,0.30
2023-03-26T22:58:44.746Z,0.65
2023-03-26T23:01:14.461Z,0.43
2023-03-26T23:03:43.035Z,0.28
2023-03-26T23:06:12.012Z,0.43
2023-03-26T23:08:40.094Z,0.20
2023-03-26T23:11:11.218Z,0.30
2023-03-26T23:13:40.330Z,0.30
2023-03-26T23:16:08.509Z,0.38
2023-03-26T23:18:36.614Z,0.57
2023-03-26T23:21:05.973Z,0.40
2023-03-26T23:23:39.926Z,0.73
2023-03-26T23:26:07.784Z,0.28
2023-03-26T23:28:35.757Z,0.30
2023-03-26T23:31:05.452Z,0.20
2023-03-26T23:33:35.235Z,0.45
2023-03-26T23:36:08.652Z,0.22
2023-03-26T23:38:43.422Z,0.45
2023-03-26T23:41:14.810Z,0.43
2023-03-26T23:43:54.585Z,0.40
2023-03-26T23:46:24.957Z,0.82
2023-03-26T23:48:53.192Z,0.38
2023-03-26T23:51:21.540Z,0.50
2023-03-26T23:53:49.853Z,0.63
2023-03-26T23:56:17.698Z,0.55
2023-03-26T23:58:45.287Z,0.60
